sensor_id;sensor_type;location;lat;lon;timestamp;temperature;humidity
42187;DHT22;27858;51.414;0.018;2022-09-09T04:02:15;14.90;99.90
42187;DHT22;27858;51.414;0.018;2022-09-09T04:04:42;15.20;99.90
42187;DHT22;27858;51.414;0.018;2022-09-09T04:07:09;15.00;99.90
42187;DHT22;27858;51.414;0.018;2022-09-09T04:09:36;15.20;99.90
42187;DHT22;27858;51.414;0.018;2022-09-09T04:12:02;14.90;99.90
42187;DHT22;27858;51.414;0.018;2022-09-09T04:14:29;15.30;99.90
42187;DHT22;27858;51.414;0.018;2022-09-09T04:16:56;15.30;99.90
42187;DHT22;27858;51.414;0.018;2022-09-09T04:19:23;15.30;99.90
42187;DHT22;27858;51.414;0.018;2022-09-09T04:21:53;15.30;99.90
42187;DHT22;27858;51.414;0.018;2022-09-09T04:24:20;14.90;99.90
42187;DHT22;27858;51.414;0.018;2022-09-09T04:26:48;15.10;99.90
42187;DHT22;27858;51.414;0.018;2022-09-09T04:29:14;15.10;99.90
42187;DHT22;27858;51.414;0.018;2022-09-09T04:31:41;14.90;99.90
42187;DHT22;27858;51.414;0.018;2022-09-09T04:34:10;15.00;99.90
42187;DHT22;27858;51.414;0.018;2022-09-09T04:36:36;14.90;99.90
42187;DHT22;27858;51.414;0.018;2022-09-09T04:39:07;15.10;99.90
42187;DHT22;27858;51.414;0.018;2022-09-09T04:41:33;14.90;99.90
42187;DHT22;27858;51.414;0.018;2022-09-09T04:44:01;15.30;99.90
42187;DHT22;27858;51.414;0.018;2022-09-09T04:46:29;15.00;99.90
42187;DHT22;27858;51.414;0.018;2022-09-09T04:48:55;15.30;99.90
42187;DHT22;27858;51.414;0.018;2022-09-09T04:51:22;14.90;99.90
42187;DHT22;27858;51.414;0.018;2022-09-09T04:53:49;14.80;99.90
42187;DHT22;27858;51.414;0.018;2022-09-09T04:56:17;14.90;99.90
42187;DHT22;27858;51.414;0.018;2022-09-09T04:58:44;15.30;99.90
42187;DHT22;27858;51.414;0.018;2022-09-09T05:01:14;14.90;99.90
42187;DHT22;27858;51.414;0.018;2022-09-09T05:03:41;15.20;99.90
42187;DHT22;27858;51.414;0.018;2022-09-09T05:06:10;15.30;99.90
42187;DHT22;27858;51.414;0.018;2022-09-09T05:08:38;14.90;99.90
42187;DHT22;27858;51.414;0.018;2022-09-09T05:11:28;14.80;99.90
42187;DHT22;27858;51.414;0.018;2022-09-09T05:13:55;14.90;99.90
42187;DHT22;27858;51.414;0.018;2022-09-09T05:16:23;14.80;99.90
42187;DHT22;27858;51.414;0.018;2022-09-09T05:18:50;15.20;99.90
42187;DHT22;27858;51.414;0.018;2022-09-09T05:21:21;14.90;99.90
42187;DHT22;27858;51.414;0.018;2022-09-09T05:23:48;14.90;99.90
42187;DHT22;27858;51.414;0.018;2022-09-09T05:26:17;15.00;99.90
42187;DHT22;27858;51.414;0.018;2022-09-09T05:28:45;14.90;99.90
42187;DHT22;27858;51.414;0.018;2022-09-09T05:31:13;15.10;99.90
42187;DHT22;27858;51.414;0.018;2022-09-09T05:33:44;15.20;99.90
42187;DHT22;27858;51.414;0.018;2022-09-09T05:36:15;14.90;99.90
42187;DHT22;27858;51.414;0.018;2022-09-09T05:38:42;15.00;99.90
42187;DHT22;27858;51.414;0.018;2022-09-09T05:41:10;15.20;99.90
42187;DHT22;27858;51.414;0.018;2022-09-09T05:43:38;15.10;99.90
42187;DHT22;27858;51.414;0.018;2022-09-09T05:46:22;14.90;99.90
42187;DHT22;27858;51.414;0.018;2022-09-09T05:49:02;15.00;99.90
42187;DHT22;27858;51.414;0.018;2022-09-09T05:51:32;15.00;99.90
42187;DHT22;27858;51.414;0.018;2022-09-09T05:53:59;14.90;99.90
42187;DHT22;27858;51.414;0.018;2022-09-09T05:56:27;15.20;99.90
42187;DHT22;27858;51.414;0.018;2022-09-09T05:59:00;15.00;99.90
42187;DHT22;27858;51.414;0.018;2022-09-09T06:01:35;15.10;99.90
42187;DHT22;27858;51.414;0.018;2022-09-09T06:04:02;15.10;99.90
42187;DHT22;27858;51.414;0.018;2022-09-09T06:06:32;15.20;99.90
42187;DHT22;27858;51.414;0.018;2022-09-09T06:09:04;14.90;99.90
42187;DHT22;27858;51.414;0.018;2022-09-09T06:11:38;15.10;99.90
42187;DHT22;27858;51.414;0.018;2022-09-09T06:14:05;14.90;99.90
42187;DHT22;27858;51.414;0.018;2022-09-09T06:16:32;15.30;99.90
42187;DHT22;27858;51.414;0.018;2022-09-09T06:19:02;15.30;99.90
42187;DHT22;27858;51.414;0.018;2022-09-09T06:21:34;15.30;99.90
42187;DHT22;27858;51.414;0.018;2022-09-09T06:24:04;15.10;99.90
42187;DHT22;27858;51.414;0.018;2022-09-09T06:26:33;15.00;99.90
42187;DHT22;27858;51.414;0.018;2022-09-09T06:29:01;14.90;99.90
42187;DHT22;27858;51.414;0.018;2022-09-09T06:31:32;14.90;99.90
42187;DHT22;27858;51.414;0.018;2022-09-09T06:34:01;15.30;99.90
42187;DHT22;27858;51.414;0.018;2022-09-09T06:36:30;15.40;99.90
42187;DHT22;27858;51.414;0.018;2022-09-09T06:38:58;15.10;99.90
42187;DHT22;27858;51.414;0.018;2022-09-09T06:41:29;15.30;99.90
42187;DHT22;27858;51.414;0.018;2022-09-09T06:43:57;15.00;99.90
42187;DHT22;27858;51.414;0.018;2022-09-09T06:46:26;15.40;99.90
42187;DHT22;27858;51.414;0.018;2022-09-09T06:48:55;15.10;99.90
42187;DHT22;27858;51.414;0.018;2022-09-09T06:51:23;15.40;99.90
42187;DHT22;27858;51.414;0.018;2022-09-09T06:53:53;15.40;99.90
42187;DHT22;27858;51.414;0.018;2022-09-09T06:56:26;15.40;99.90
42187;DHT22;27858;51.414;0.018;2022-09-09T06:58:59;15.40;99.90
42187;DHT22;27858;51.414;0.018;2022-09-09T07:01:29;15.40;99.90
42187;DHT22;27858;51.414;0.018;2022-09-09T07:03:58;15.00;99.90
42187;DHT22;27858;51.414;0.018;2022-09-09T07:06:31;15.20;99.90
42187;DHT22;27858;51.414;0.018;2022-09-09T07:09:06;15.10;99.90
42187;DHT22;27858;51.414;0.018;2022-09-09T07:11:39;15.30;99.90
42187;DHT22;27858;51.414;0.018;2022-09-09T07:14:06;15.30;99.90
42187;DHT22;27858;51.414;0.018;2022-09-09T07:16:33;15.20;99.90
42187;DHT22;27858;51.414;0.018;2022-09-09T07:19:04;15.10;99.90
42187;DHT22;27858;51.414;0.018;2022-09-09T07:21:32;15.40;99.90
42187;DHT22;27858;51.414;0.018;2022-09-09T07:24:00;15.60;99.90
42187;DHT22;27858;51.414;0.018;2022-09-09T07:26:29;15.50;99.90
42187;DHT22;27858;51.414;0.018;2022-09-09T07:28:56;15.30;99.90
42187;DHT22;27858;51.414;0.018;2022-09-09T07:31:28;15.70;99.90
42187;DHT22;27858;51.414;0.018;2022-09-09T07:33:58;15.70;99.90
42187;DHT22;27858;51.414;0.018;2022-09-09T07:36:31;15.50;99.90
42187;DHT22;27858;51.414;0.018;2022-09-09T07:39:07;15.50;99.90
42187;DHT22;27858;51.414;0.018;2022-09-09T07:41:43;15.60;99.90
42187;DHT22;27858;51.414;0.018;2022-09-09T07:44:13;15.50;99.90
42187;DHT22;27858;51.414;0.018;2022-09-09T07:46:41;15.50;99.90
42187;DHT22;27858;51.414;0.018;2022-09-09T07:49:09;15.80;99.90
42187;DHT22;27858;51.414;0.018;2022-09-09T07:51:38;15.60;99.90
42187;DHT22;27858;51.414;0.018;2022-09-09T07:54:07;15.50;99.90
42187;DHT22;27858;51.414;0.018;2022-09-09T07:56:36;15.80;99.90
42187;DHT22;27858;51.414;0.018;2022-09-09T07:59:06;15.80;99.90
42187;DHT22;27858;51.414;0.018;2022-09-09T08:01:39;15.90;99.90
42187;DHT22;27858;51.414;0.018;2022-09-09T08:04:12;15.70;99.90
42187;DHT22;27858;51.414;0.018;2022-09-09T08:06:53;15.60;99.90
42187;DHT22;27858;51.414;0.018;2022-09-09T08:09:21;15.90;99.90
42187;DHT22;27858;51.414;0.018;2022-09-09T08:11:48;15.80;99.90
42187;DHT22;27858;51.414;0.018;2022-09-09T08:14:15;15.60;99.90
42187;DHT22;27858;51.414;0.018;2022-09-09T08:16:44;16.00;99.90
42187;DHT22;27858;51.414;0.018;2022-09-09T08:19:12;15.80;99.90
42187;DHT22;27858;51.414;0.018;2022-09-09T08:21:40;15.80;99.90
42187;DHT22;27858;51.414;0.018;2022-09-09T08:24:08;15.80;99.90
42187;DHT22;27858;51.414;0.018;2022-09-09T08:26:47;15.90;99.90
42187;DHT22;27858;51.414;0.018;2022-09-09T08:29:17;16.00;99.90
42187;DHT22;27858;51.414;0.018;2022-09-09T08:31:48;15.90;99.90
42187;DHT22;27858;51.414;0.018;2022-09-09T08:34:16;16.20;99.90
42187;DHT22;27858;51.414;0.018;2022-09-09T08:36:47;16.00;99.90
42187;DHT22;27858;51.414;0.018;2022-09-09T08:39:17;16.10;99.90
42187;DHT22;27858;51.414;0.018;2022-09-09T08:45:02;16.30;99.90
42187;DHT22;27858;51.414;0.018;2022-09-09T08:50:25;16.30;99.90
42187;DHT22;27858;51.414;0.018;2022-09-09T08:55:41;16.60;99.90
42187;DHT22;27858;51.414;0.018;2022-09-09T08:58:26;16.40;99.90
42187;DHT22;27858;51.414;0.018;2022-09-09T09:09:01;16.30;99.90
42187;DHT22;27858;51.414;0.018;2022-09-09T09:11:40;16.20;99.90
42187;DHT22;27858;51.414;0.018;2022-09-09T09:14:23;16.10;99.90
42187;DHT22;27858;51.414;0.018;2022-09-09T09:19:33;15.90;99.90
42187;DHT22;27858;51.414;0.018;2022-09-09T09:24:47;15.80;99.90
42187;DHT22;27858;51.414;0.018;2022-09-09T09:33:14;16.10;99.90
42187;DHT22;27858;51.414;0.018;2022-09-09T09:35:45;16.00;99.90
42187;DHT22;27858;51.414;0.018;2022-09-09T09:38:21;16.30;99.90
42187;DHT22;27858;51.414;0.018;2022-09-09T09:41:09;16.30;99.90
42187;DHT22;27858;51.414;0.018;2022-09-09T09:43:37;16.40;99.90
42187;DHT22;27858;51.414;0.018;2022-09-09T09:46:19;16.60;99.90
42187;DHT22;27858;51.414;0.018;2022-09-09T09:48:59;16.50;99.90
42187;DHT22;27858;51.414;0.018;2022-09-09T09:51:27;16.80;99.90
42187;DHT22;27858;51.414;0.018;2022-09-09T09:54:09;16.80;99.90
42187;DHT22;27858;51.414;0.018;2022-09-09T09:56:40;16.90;99.90
42187;DHT22;27858;51.414;0.018;2022-09-09T09:59:37;16.90;99.90
42187;DHT22;27858;51.414;0.018;2022-09-09T10:02:19;16.80;99.90
42187;DHT22;27858;51.414;0.018;2022-09-09T10:05:12;16.80;99.90
42187;DHT22;27858;51.414;0.018;2022-09-09T10:07:42;17.00;99.90
42187;DHT22;27858;51.414;0.018;2022-09-09T10:10:17;16.80;99.90
42187;DHT22;27858;51.414;0.018;2022-09-09T10:15:42;17.00;99.90
42187;DHT22;27858;51.414;0.018;2022-09-09T10:33:31;17.20;99.90
42187;DHT22;27858;51.414;0.018;2022-09-09T10:36:13;17.00;99.90
42187;DHT22;27858;51.414;0.018;2022-09-09T10:38:42;16.90;99.90
42187;DHT22;27858;51.414;0.018;2022-09-09T10:44:17;16.90;99.90
42187;DHT22;27858;51.414;0.018;2022-09-09T10:53:00;17.20;99.90
42187;DHT22;27858;51.414;0.018;2022-09-09T10:55:57;17.30;99.90
42187;DHT22;27858;51.414;0.018;2022-09-09T10:58:46;17.40;99.90
42187;DHT22;27858;51.414;0.018;2022-09-09T11:03:49;17.20;99.90
42187;DHT22;27858;51.414;0.018;2022-09-09T11:06:20;16.90;99.90
42187;DHT22;27858;51.414;0.018;2022-09-09T11:08:50;16.80;99.90
42187;DHT22;27858;51.414;0.018;2022-09-09T11:13:58;16.50;99.90
42187;DHT22;27858;51.414;0.018;2022-09-09T11:16:36;16.40;99.90
42187;DHT22;27858;51.414;0.018;2022-09-09T11:19:26;16.30;99.90
42187;DHT22;27858;51.414;0.018;2022-09-09T11:21:55;16.40;99.90
42187;DHT22;27858;51.414;0.018;2022-09-09T11:24:36;16.50;99.90
42187;DHT22;27858;51.414;0.018;2022-09-09T11:40:42;17.00;99.90
42187;DHT22;27858;51.414;0.018;2022-09-09T11:45:58;17.00;99.90
42187;DHT22;27858;51.414;0.018;2022-09-09T11:49:21;17.00;99.90
42187;DHT22;27858;51.414;0.018;2022-09-09T11:51:34;17.10;99.90
42187;DHT22;27858;51.414;0.018;2022-09-09T11:54:29;17.00;99.90
42187;DHT22;27858;51.414;0.018;2022-09-09T11:56:59;17.10;99.90
42187;DHT22;27858;51.414;0.018;2022-09-09T11:59:32;17.10;99.90
42187;DHT22;27858;51.414;0.018;2022-09-09T12:02:22;17.20;99.90
42187;DHT22;27858;51.414;0.018;2022-09-09T12:05:06;17.30;99.90
42187;DHT22;27858;51.414;0.018;2022-09-09T12:07:59;17.40;99.90
42187;DHT22;27858;51.414;0.018;2022-09-09T12:10:35;17.50;99.90
42187;DHT22;27858;51.414;0.018;2022-09-09T12:13:25;17.50;99.90
42187;DHT22;27858;51.414;0.018;2022-09-09T12:15:57;17.60;99.90
42187;DHT22;27858;51.414;0.018;2022-09-09T12:18:25;17.80;99.90
42187;DHT22;27858;51.414;0.018;2022-09-09T12:23:57;17.80;99.90
42187;DHT22;27858;51.414;0.018;2022-09-09T12:26:47;18.10;99.90
42187;DHT22;27858;51.414;0.018;2022-09-09T12:29:39;18.10;99.90
42187;DHT22;27858;51.414;0.018;2022-09-09T12:32:19;18.20;99.90
42187;DHT22;27858;51.414;0.018;2022-09-09T12:34:55;18.10;99.90
42187;DHT22;27858;51.414;0.018;2022-09-09T12:37:37;18.10;99.90
42187;DHT22;27858;51.414;0.018;2022-09-09T12:40:30;18.10;99.90
42187;DHT22;27858;51.414;0.018;2022-09-09T12:42:59;18.10;99.90
42187;DHT22;27858;51.414;0.018;2022-09-09T12:45:32;18.10;99.90
42187;DHT22;27858;51.414;0.018;2022-09-09T12:48:00;18.30;99.90
42187;DHT22;27858;51.414;0.018;2022-09-09T12:50:33;18.50;99.90
42187;DHT22;27858;51.414;0.018;2022-09-09T12:53:06;18.40;99.90
42187;DHT22;27858;51.414;0.018;2022-09-09T12:55:37;18.40;99.90
42187;DHT22;27858;51.414;0.018;2022-09-09T12:58:06;18.20;97.70
42187;DHT22;27858;51.414;0.018;2022-09-09T13:00:33;18.20;99.90
42187;DHT22;27858;51.414;0.018;2022-09-09T13:03:13;18.30;99.90
42187;DHT22;27858;51.414;0.018;2022-09-09T13:05:42;18.50;84.60
42187;DHT22;27858;51.414;0.018;2022-09-09T13:08:11;18.80;90.00
42187;DHT22;27858;51.414;0.018;2022-09-09T13:13:33;19.30;47.10
42187;DHT22;27858;51.414;0.018;2022-09-09T13:16:02;19.20;34.00
42187;DHT22;27858;51.414;0.018;2022-09-09T13:18:39;19.30;41.40
42187;DHT22;27858;51.414;0.018;2022-09-09T13:21:06;19.30;45.00
42187;DHT22;27858;51.414;0.018;2022-09-09T13:23:35;19.70;61.30
42187;DHT22;27858;51.414;0.018;2022-09-09T13:26:06;19.70;34.00
42187;DHT22;27858;51.414;0.018;2022-09-09T13:28:34;20.10;21.70
42187;DHT22;27858;51.414;0.018;2022-09-09T13:31:04;20.20;16.40
42187;DHT22;27858;51.414;0.018;2022-09-09T13:33:38;20.40;7.20
42187;DHT22;27858;51.414;0.018;2022-09-09T13:36:10;20.50;6.90
42187;DHT22;27858;51.414;0.018;2022-09-09T13:41:33;20.40;1.00
42187;DHT22;27858;51.414;0.018;2022-09-09T13:44:02;20.40;2.40
42187;DHT22;27858;51.414;0.018;2022-09-09T13:46:40;20.20;8.30
42187;DHT22;27858;51.414;0.018;2022-09-09T13:51:42;19.70;4.00
42187;DHT22;27858;51.414;0.018;2022-09-09T13:54:11;19.60;8.70
42187;DHT22;27858;51.414;0.018;2022-09-09T13:56:40;19.50;11.20
42187;DHT22;27858;51.414;0.018;2022-09-09T13:59:13;19.60;10.30
42187;DHT22;27858;51.414;0.018;2022-09-09T14:01:43;19.70;16.40
42187;DHT22;27858;51.414;0.018;2022-09-09T14:04:10;19.90;9.20
42187;DHT22;27858;51.414;0.018;2022-09-09T14:06:38;20.10;11.90
42187;DHT22;27858;51.414;0.018;2022-09-09T14:09:07;20.50;7.70
42187;DHT22;27858;51.414;0.018;2022-09-09T14:11:34;20.50;1.00
42187;DHT22;27858;51.414;0.018;2022-09-09T14:14:00;20.80;1.00
42187;DHT22;27858;51.414;0.018;2022-09-09T14:16:27;20.60;1.00
42187;DHT22;27858;51.414;0.018;2022-09-09T14:18:54;20.80;1.00
42187;DHT22;27858;51.414;0.018;2022-09-09T14:21:23;21.10;1.00
42187;DHT22;27858;51.414;0.018;2022-09-09T14:23:50;20.80;1.00
42187;DHT22;27858;51.414;0.018;2022-09-09T14:26:17;20.50;1.00
42187;DHT22;27858;51.414;0.018;2022-09-09T14:28:48;20.20;1.00
42187;DHT22;27858;51.414;0.018;2022-09-09T14:31:24;20.10;1.50
42187;DHT22;27858;51.414;0.018;2022-09-09T14:33:51;20.10;4.70
42187;DHT22;27858;51.414;0.018;2022-09-09T14:36:19;20.20;1.00
42187;DHT22;27858;51.414;0.018;2022-09-09T14:38:47;20.50;1.00
42187;DHT22;27858;51.414;0.018;2022-09-09T14:41:16;20.60;1.00
42187;DHT22;27858;51.414;0.018;2022-09-09T14:43:44;20.70;1.00
42187;DHT22;27858;51.414;0.018;2022-09-09T14:46:13;20.80;1.00
42187;DHT22;27858;51.414;0.018;2022-09-09T14:48:41;20.50;1.00
42187;DHT22;27858;51.414;0.018;2022-09-09T14:51:13;20.20;1.00
42187;DHT22;27858;51.414;0.018;2022-09-09T14:53:40;20.00;1.00
42187;DHT22;27858;51.414;0.018;2022-09-09T14:56:17;19.80;1.00
42187;DHT22;27858;51.414;0.018;2022-09-09T14:58:44;19.80;6.80
42187;DHT22;27858;51.414;0.018;2022-09-09T15:01:16;19.90;10.10
42187;DHT22;27858;51.414;0.018;2022-09-09T15:03:49;19.90;4.60
42187;DHT22;27858;51.414;0.018;2022-09-09T15:06:16;19.80;3.70
42187;DHT22;27858;51.414;0.018;2022-09-09T15:08:44;19.70;2.80
42187;DHT22;27858;51.414;0.018;2022-09-09T15:11:13;19.60;3.40
42187;DHT22;27858;51.414;0.018;2022-09-09T15:13:42;19.60;8.80
42187;DHT22;27858;51.414;0.018;2022-09-09T15:16:13;19.70;13.00
42187;DHT22;27858;51.414;0.018;2022-09-09T15:18:41;19.60;16.30
42187;DHT22;27858;51.414;0.018;2022-09-09T15:21:15;19.40;22.60
42187;DHT22;27858;51.414;0.018;2022-09-09T15:23:46;19.50;20.90
42187;DHT22;27858;51.414;0.018;2022-09-09T15:26:15;19.50;22.70
42187;DHT22;27858;51.414;0.018;2022-09-09T15:28:43;19.50;22.70
42187;DHT22;27858;51.414;0.018;2022-09-09T15:31:28;19.50;23.30
42187;DHT22;27858;51.414;0.018;2022-09-09T15:33:57;19.40;12.20
42187;DHT22;27858;51.414;0.018;2022-09-09T15:36:33;19.30;14.60
42187;DHT22;27858;51.414;0.018;2022-09-09T15:39:00;19.20;27.70
42187;DHT22;27858;51.414;0.018;2022-09-09T15:41:29;19.20;37.10
42187;DHT22;27858;51.414;0.018;2022-09-09T15:43:56;19.10;41.80
42187;DHT22;27858;51.414;0.018;2022-09-09T15:46:35;19.10;51.50
42187;DHT22;27858;51.414;0.018;2022-09-09T15:49:21;19.20;51.70
42187;DHT22;27858;51.414;0.018;2022-09-09T15:51:57;19.20;91.40
42187;DHT22;27858;51.414;0.018;2022-09-09T15:54:25;19.20;99.90
42187;DHT22;27858;51.414;0.018;2022-09-09T15:56:54;19.20;99.90
42187;DHT22;27858;51.414;0.018;2022-09-09T15:59:26;19.10;99.90
42187;DHT22;27858;51.414;0.018;2022-09-09T16:01:58;18.90;99.90
42187;DHT22;27858;51.414;0.018;2022-09-09T16:04:27;18.70;99.90
42187;DHT22;27858;51.414;0.018;2022-09-09T16:06:57;18.70;99.90
42187;DHT22;27858;51.414;0.018;2022-09-09T16:09:28;18.60;99.90
42187;DHT22;27858;51.414;0.018;2022-09-09T16:11:59;16.90;99.90
42187;DHT22;27858;51.414;0.018;2022-09-09T16:14:28;16.80;99.90
42187;DHT22;27858;51.414;0.018;2022-09-09T16:16:55;16.40;99.90
42187;DHT22;27858;51.414;0.018;2022-09-09T16:19:23;16.60;99.90
42187;DHT22;27858;51.414;0.018;2022-09-09T16:21:50;16.40;99.90
42187;DHT22;27858;51.414;0.018;2022-09-09T16:24:18;16.60;99.90
42187;DHT22;27858;51.414;0.018;2022-09-09T16:26:47;16.60;99.90
42187;DHT22;27858;51.414;0.018;2022-09-09T16:29:16;16.90;99.90
42187;DHT22;27858;51.414;0.018;2022-09-09T16:31:45;16.80;99.90
42187;DHT22;27858;51.414;0.018;2022-09-09T16:34:12;17.20;99.90
42187;DHT22;27858;51.414;0.018;2022-09-09T16:36:40;16.70;99.90
42187;DHT22;27858;51.414;0.018;2022-09-09T16:39:10;16.90;99.90
42187;DHT22;27858;51.414;0.018;2022-09-09T16:41:38;17.30;99.90
42187;DHT22;27858;51.414;0.018;2022-09-09T16:44:07;16.70;99.90
42187;DHT22;27858;51.414;0.018;2022-09-09T16:46:37;16.80;99.90
42187;DHT22;27858;51.414;0.018;2022-09-09T16:49:07;16.90;99.90
42187;DHT22;27858;51.414;0.018;2022-09-09T16:51:40;17.30;99.90
42187;DHT22;27858;51.414;0.018;2022-09-09T16:54:09;17.30;99.90
42187;DHT22;27858;51.414;0.018;2022-09-09T16:56:38;17.00;99.90
42187;DHT22;27858;51.414;0.018;2022-09-09T16:59:19;17.40;99.90
42187;DHT22;27858;51.414;0.018;2022-09-09T17:01:48;17.60;99.90
42187;DHT22;27858;51.414;0.018;2022-09-09T17:04:26;17.30;99.90
42187;DHT22;27858;51.414;0.018;2022-09-09T17:06:55;17.10;99.90
42187;DHT22;27858;51.414;0.018;2022-09-09T17:09:27;17.30;99.90
42187;DHT22;27858;51.414;0.018;2022-09-09T17:11:58;17.30;99.90
42187;DHT22;27858;51.414;0.018;2022-09-09T17:14:25;17.60;99.90
42187;DHT22;27858;51.414;0.018;2022-09-09T17:16:52;17.30;99.90
42187;DHT22;27858;51.414;0.018;2022-09-09T17:19:19;17.20;99.90
42187;DHT22;27858;51.414;0.018;2022-09-09T17:21:46;17.20;99.90
42187;DHT22;27858;51.414;0.018;2022-09-09T17:24:35;17.20;99.90
42187;DHT22;27858;51.414;0.018;2022-09-09T17:27:05;17.80;99.90
42187;DHT22;27858;51.414;0.018;2022-09-09T17:29:32;17.70;99.90
42187;DHT22;27858;51.414;0.018;2022-09-09T17:31:58;17.00;99.90
42187;DHT22;27858;51.414;0.018;2022-09-09T17:34:26;17.30;99.90
42187;DHT22;27858;51.414;0.018;2022-09-09T17:36:53;17.20;99.90
42187;DHT22;27858;51.414;0.018;2022-09-09T17:39:20;17.40;99.90
42187;DHT22;27858;51.414;0.018;2022-09-09T17:41:47;17.30;99.90
42187;DHT22;27858;51.414;0.018;2022-09-09T17:44:13;17.40;99.90
42187;DHT22;27858;51.414;0.018;2022-09-09T17:46:42;16.80;99.90
42187;DHT22;27858;51.414;0.018;2022-09-09T17:49:11;17.10;99.90
42187;DHT22;27858;51.414;0.018;2022-09-09T17:51:39;17.20;99.90
42187;DHT22;27858;51.414;0.018;2022-09-09T17:54:11;16.80;99.90
42187;DHT22;27858;51.414;0.018;2022-09-09T17:56:39;16.80;99.90
42187;DHT22;27858;51.414;0.018;2022-09-09T17:59:08;17.00;99.90
42187;DHT22;27858;51.414;0.018;2022-09-09T18:01:37;16.60;99.90
42187;DHT22;27858;51.414;0.018;2022-09-09T18:04:07;17.00;99.90
42187;DHT22;27858;51.414;0.018;2022-09-09T18:06:40;16.90;99.90
42187;DHT22;27858;51.414;0.018;2022-09-09T18:09:16;16.40;99.90
42187;DHT22;27858;51.414;0.018;2022-09-09T18:11:45;16.70;99.90
42187;DHT22;27858;51.414;0.018;2022-09-09T18:14:18;16.70;99.90
42187;DHT22;27858;51.414;0.018;2022-09-09T18:16:46;16.60;99.90
42187;DHT22;27858;51.414;0.018;2022-09-09T18:19:16;16.30;99.90
42187;DHT22;27858;51.414;0.018;2022-09-09T18:21:44;16.60;99.90
42187;DHT22;27858;51.414;0.018;2022-09-09T18:24:12;16.40;99.90
42187;DHT22;27858;51.414;0.018;2022-09-09T18:26:40;16.50;99.90
42187;DHT22;27858;51.414;0.018;2022-09-09T18:29:13;16.60;99.90
42187;DHT22;27858;51.414;0.018;2022-09-09T18:31:40;16.30;99.90
42187;DHT22;27858;51.414;0.018;2022-09-09T18:34:11;16.30;99.90
42187;DHT22;27858;51.414;0.018;2022-09-09T18:36:47;16.20;99.90
42187;DHT22;27858;51.414;0.018;2022-09-09T18:39:16;16.60;99.90
42187;DHT22;27858;51.414;0.018;2022-09-09T18:41:49;16.70;99.90
42187;DHT22;27858;51.414;0.018;2022-09-09T18:44:20;16.20;99.90
42187;DHT22;27858;51.414;0.018;2022-09-09T18:46:47;16.70;99.90
42187;DHT22;27858;51.414;0.018;2022-09-09T18:49:15;16.30;99.90
42187;DHT22;27858;51.414;0.018;2022-09-09T18:51:43;16.70;99.90
42187;DHT22;27858;51.414;0.018;2022-09-09T18:54:18;16.40;99.90
42187;DHT22;27858;51.414;0.018;2022-09-09T18:56:46;16.40;99.90
42187;DHT22;27858;51.414;0.018;2022-09-09T18:59:17;16.20;99.90
42187;DHT22;27858;51.414;0.018;2022-09-09T19:01:48;16.20;99.90
42187;DHT22;27858;51.414;0.018;2022-09-09T19:04:17;16.60;99.90
42187;DHT22;27858;51.414;0.018;2022-09-09T19:06:46;16.20;99.90
42187;DHT22;27858;51.414;0.018;2022-09-09T19:09:15;16.40;99.90
42187;DHT22;27858;51.414;0.018;2022-09-09T19:11:43;16.20;99.90
42187;DHT22;27858;51.414;0.018;2022-09-09T19:14:12;16.10;99.90
42187;DHT22;27858;51.414;0.018;2022-09-09T19:16:39;16.00;99.90
42187;DHT22;27858;51.414;0.018;2022-09-09T19:19:10;16.20;99.90
42187;DHT22;27858;51.414;0.018;2022-09-09T19:21:40;16.00;99.90
42187;DHT22;27858;51.414;0.018;2022-09-09T19:24:20;16.50;99.90
42187;DHT22;27858;51.414;0.018;2022-09-09T19:26:49;16.00;99.90
42187;DHT22;27858;51.414;0.018;2022-09-09T19:29:27;15.90;99.90
42187;DHT22;27858;51.414;0.018;2022-09-09T19:31:56;15.90;99.90
42187;DHT22;27858;51.414;0.018;2022-09-09T19:34:43;16.40;99.90
42187;DHT22;27858;51.414;0.018;2022-09-09T19:37:10;16.30;99.90
42187;DHT22;27858;51.414;0.018;2022-09-09T19:39:44;16.40;99.90
42187;DHT22;27858;51.414;0.018;2022-09-09T19:42:11;15.90;99.90
42187;DHT22;27858;51.414;0.018;2022-09-09T19:44:41;16.00;99.90
42187;DHT22;27858;51.414;0.018;2022-09-09T19:47:08;16.20;99.90
42187;DHT22;27858;51.414;0.018;2022-09-09T19:49:35;16.40;99.90
42187;DHT22;27858;51.414;0.018;2022-09-09T19:52:06;16.40;99.90
42187;DHT22;27858;51.414;0.018;2022-09-09T19:54:33;16.00;99.90
42187;DHT22;27858;51.414;0.018;2022-09-09T19:57:00;16.40;99.90
42187;DHT22;27858;51.414;0.018;2022-09-09T19:59:40;15.90;99.90
42187;DHT22;27858;51.414;0.018;2022-09-09T20:02:10;15.90;99.90
42187;DHT22;27858;51.414;0.018;2022-09-09T20:04:37;15.90;99.90
42187;DHT22;27858;51.414;0.018;2022-09-09T20:07:04;15.90;99.90
42187;DHT22;27858;51.414;0.018;2022-09-09T20:09:31;16.00;99.90
42187;DHT22;27858;51.414;0.018;2022-09-09T20:11:58;16.40;99.90
42187;DHT22;27858;51.414;0.018;2022-09-09T20:14:25;16.40;99.90
42187;DHT22;27858;51.414;0.018;2022-09-09T20:16:52;15.90;99.90
42187;DHT22;27858;51.414;0.018;2022-09-09T20:19:19;15.90;99.90
42187;DHT22;27858;51.414;0.018;2022-09-09T20:21:46;16.20;99.90
42187;DHT22;27858;51.414;0.018;2022-09-09T20:24:17;15.80;99.90
42187;DHT22;27858;51.414;0.018;2022-09-09T20:26:46;15.70;99.90
42187;DHT22;27858;51.414;0.018;2022-09-09T20:29:16;16.20;99.90
42187;DHT22;27858;51.414;0.018;2022-09-09T20:31:43;16.00;99.90
42187;DHT22;27858;51.414;0.018;2022-09-09T20:34:13;16.20;99.90
42187;DHT22;27858;51.414;0.018;2022-09-09T20:36:41;15.60;99.90
42187;DHT22;27858;51.414;0.018;2022-09-09T20:39:17;16.10;99.90
42187;DHT22;27858;51.414;0.018;2022-09-09T20:41:46;16.00;99.90
42187;DHT22;27858;51.414;0.018;2022-09-09T20:44:18;15.90;99.90
42187;DHT22;27858;51.414;0.018;2022-09-09T20:46:52;16.00;99.90
42187;DHT22;27858;51.414;0.018;2022-09-09T20:49:21;16.00;99.90
42187;DHT22;27858;51.414;0.018;2022-09-09T20:51:50;15.80;99.90
42187;DHT22;27858;51.414;0.018;2022-09-09T20:54:20;15.60;99.90
42187;DHT22;27858;51.414;0.018;2022-09-09T20:56:50;15.60;99.90
42187;DHT22;27858;51.414;0.018;2022-09-09T20:59:20;16.00;99.90
42187;DHT22;27858;51.414;0.018;2022-09-09T21:01:47;15.70;99.90
42187;DHT22;27858;51.414;0.018;2022-09-09T21:04:15;16.00;99.90
42187;DHT22;27858;51.414;0.018;2022-09-09T21:06:43;15.40;99.90
42187;DHT22;27858;51.414;0.018;2022-09-09T21:09:11;16.00;99.90
42187;DHT22;27858;51.414;0.018;2022-09-09T21:11:38;15.60;99.90
42187;DHT22;27858;51.414;0.018;2022-09-09T21:14:05;15.80;99.90
42187;DHT22;27858;51.414;0.018;2022-09-09T21:16:32;15.50;99.90
42187;DHT22;27858;51.414;0.018;2022-09-09T21:18:59;15.50;99.90
42187;DHT22;27858;51.414;0.018;2022-09-09T21:21:26;15.50;99.90
42187;DHT22;27858;51.414;0.018;2022-09-09T21:23:55;15.30;99.90
42187;DHT22;27858;51.414;0.018;2022-09-09T21:26:25;15.20;99.90